Time;durP1;ratioP1;P1;durP2;ratioP2;P2;SDS_P1;SDS_P2;PMS_P1;PMS_P2;Temp;Humidity;BMP_temperature;BMP_pressure;BME280_temperature;BME280_humidity;BME280_pressure;Samples;Min_cycle;Max_cycle;Signal;HPM_P1;HPM_P2
2021/05/28 00:00:58;;;;;;;2.55;1.30;;;10.60;99.90;;;;;;5034718;28;20081;-78
2021/05/28 00:03:24;;;;;;;2.83;1.40;;;10.60;99.90;;;;;;5044897;28;20456;-77
2021/05/28 00:05:50;;;;;;;1.88;1.67;;;10.60;99.90;;;;;;5041410;28;20085;-78
2021/05/28 00:08:15;;;;;;;1.50;1.40;;;10.50;99.90;;;;;;5035050;28;20123;-77
2021/05/28 00:10:41;;;;;;;2.28;1.58;;;10.60;99.90;;;;;;5036886;28;20081;-77
2021/05/28 00:13:07;;;;;;;1.30;1.20;;;10.60;99.90;;;;;;5032170;28;20554;-77
2021/05/28 00:15:33;;;;;;;1.73;1.10;;;10.60;99.90;;;;;;5027624;28;20090;-78
2021/05/28 00:17:59;;;;;;;3.35;1.38;;;10.60;99.90;;;;;;5034718;28;20077;-77
2021/05/28 00:20:25;;;;;;;2.45;1.30;;;10.50;99.90;;;;;;5040992;28;20077;-78
2021/05/28 00:22:50;;;;;;;1.92;1.23;;;10.60;99.90;;;;;;5042602;28;20086;-78
2021/05/28 00:25:16;;;;;;;1.67;1.30;;;10.60;99.90;;;;;;5036746;28;20533;-78
2021/05/28 00:27:43;;;;;;;1.83;1.40;;;10.70;99.90;;;;;;5048583;28;20109;-79
2021/05/28 00:30:10;;;;;;;4.13;1.52;;;10.60;99.90;;;;;;5050423;28;20077;-79
2021/05/28 00:32:36;;;;;;;1.58;1.38;;;10.60;99.90;;;;;;5034335;28;20124;-78
2021/05/28 00:35:02;;;;;;;2.30;1.38;;;10.50;99.90;;;;;;5042891;28;20097;-78
2021/05/28 00:37:28;;;;;;;3.65;1.30;;;10.50;99.90;;;;;;5030926;28;20117;-79
2021/05/28 00:40:03;;;;;;;2.13;1.83;;;10.60;99.90;;;;;;5045011;28;20077;-76
2021/05/28 00:42:28;;;;;;;1.48;1.25;;;10.60;99.90;;;;;;5036454;28;20448;-79
2021/05/28 00:44:54;;;;;;;2.35;1.75;;;10.60;99.90;;;;;;5034252;28;20151;-78
2021/05/28 00:47:20;;;;;;;2.47;1.50;;;10.50;99.90;;;;;;5030719;28;20093;-77
2021/05/28 00:49:45;;;;;;;2.78;1.65;;;10.50;99.90;;;;;;5046964;28;20073;-75
2021/05/28 00:52:12;;;;;;;1.58;1.45;;;10.50;99.90;;;;;;5035811;28;20115;-76
2021/05/28 00:54:38;;;;;;;2.97;1.95;;;10.50;99.90;;;;;;5048847;28;20157;-76
2021/05/28 00:57:07;;;;;;;1.77;1.45;;;10.50;99.90;;;;;;5034362;28;20165;-77
2021/05/28 00:59:33;;;;;;;5.35;1.90;;;10.60;99.90;;;;;;5034715;28;20120;-77
2021/05/28 01:01:59;;;;;;;3.30;1.83;;;10.50;99.90;;;;;;5030507;28;20078;-77
2021/05/28 01:04:24;;;;;;;3.00;2.03;;;10.60;99.90;;;;;;5031457;28;20078;-77
2021/05/28 01:06:50;;;;;;;2.15;1.50;;;10.60;99.90;;;;;;5030541;28;20094;-77
2021/05/28 01:09:16;;;;;;;1.45;1.27;;;10.60;99.90;;;;;;5035951;28;20139;-77
2021/05/28 01:11:41;;;;;;;3.22;1.80;;;10.60;99.90;;;;;;5039627;28;20121;-77
2021/05/28 01:14:07;;;;;;;2.60;1.75;;;10.60;99.90;;;;;;5032899;28;20069;-76
2021/05/28 01:16:33;;;;;;;2.88;1.60;;;10.60;99.90;;;;;;5043028;28;20442;-77
2021/05/28 01:18:58;;;;;;;1.70;1.60;;;10.50;99.90;;;;;;5037241;28;20136;-76
2021/05/28 01:21:25;;;;;;;4.43;1.55;;;10.50;99.90;;;;;;5031221;28;20544;-77
2021/05/28 01:23:51;;;;;;;2.22;1.88;;;10.60;99.90;;;;;;5028125;28;20112;-76
2021/05/28 01:26:17;;;;;;;3.00;1.60;;;10.60;99.90;;;;;;5034420;28;20142;-78
2021/05/28 01:28:42;;;;;;;2.58;1.70;;;10.70;99.90;;;;;;5029800;28;20082;-77
2021/05/28 01:31:09;;;;;;;4.00;1.50;;;10.60;99.90;;;;;;5024433;28;20077;-76
2021/05/28 01:33:40;;;;;;;1.70;1.60;;;10.50;99.90;;;;;;5030579;28;20082;-77
2021/05/28 01:36:06;;;;;;;1.52;1.42;;;10.40;99.90;;;;;;5031835;28;20193;-76
2021/05/28 01:38:31;;;;;;;2.15;1.27;;;10.50;99.90;;;;;;5038995;28;20247;-76
2021/05/28 01:40:57;;;;;;;1.83;1.30;;;10.50;99.90;;;;;;5027638;28;20223;-77
2021/05/28 01:43:22;;;;;;;1.73;1.10;;;10.40;99.90;;;;;;5042426;28;20578;-77
2021/05/28 01:45:48;;;;;;;3.15;1.17;;;10.40;99.90;;;;;;5038951;28;20161;-76
2021/05/28 01:48:14;;;;;;;1.90;1.60;;;10.30;99.90;;;;;;5032262;28;20069;-76
2021/05/28 01:50:43;;;;;;;2.00;1.42;;;10.30;99.90;;;;;;5050146;28;20075;-78
2021/05/28 01:53:11;;;;;;;2.03;1.40;;;10.40;99.90;;;;;;5049689;28;20089;-76
2021/05/28 01:55:37;;;;;;;2.55;1.40;;;10.40;99.90;;;;;;5049316;28;20089;-75
2021/05/28 01:58:12;;;;;;;2.38;1.60;;;10.50;99.90;;;;;;5048970;28;20157;-77
2021/05/28 02:00:38;;;;;;;3.13;1.85;;;10.40;99.90;;;;;;5012944;28;20119;-77
2021/05/28 02:03:05;;;;;;;2.33;1.40;;;10.50;99.90;;;;;;5029589;28;20102;-77
2021/05/28 02:05:34;;;;;;;1.85;1.70;;;10.50;99.90;;;;;;5027510;28;20089;-76
2021/05/28 02:08:00;;;;;;;2.53;1.48;;;10.40;99.90;;;;;;5031227;28;20614;-76
2021/05/28 02:10:27;;;;;;;3.40;1.45;;;10.40;99.90;;;;;;5046101;28;20073;-78
2021/05/28 02:12:53;;;;;;;3.80;1.52;;;10.40;99.90;;;;;;5037907;28;20090;-77
2021/05/28 02:15:18;;;;;;;1.90;1.40;;;10.30;99.90;;;;;;5031031;28;20135;-77
2021/05/28 02:17:44;;;;;;;1.80;1.58;;;10.40;99.90;;;;;;5040597;28;20112;-76
2021/05/28 02:20:11;;;;;;;1.70;1.60;;;10.40;99.90;;;;;;5031490;28;20488;-77
2021/05/28 02:22:37;;;;;;;1.45;1.20;;;10.30;99.90;;;;;;5017934;28;20081;-77
2021/05/28 02:25:05;;;;;;;2.45;1.60;;;10.40;99.90;;;;;;5015538;28;20124;-76
2021/05/28 02:27:31;;;;;;;3.15;1.85;;;10.30;99.90;;;;;;5029420;28;21208;-77
2021/05/28 02:29:57;;;;;;;2.22;1.65;;;10.20;99.90;;;;;;5038393;28;20081;-78
2021/05/28 02:32:22;;;;;;;1.67;1.58;;;10.30;99.90;;;;;;5030969;28;20143;-77
2021/05/28 02:34:48;;;;;;;3.55;1.65;;;10.20;99.90;;;;;;5031492;28;20078;-77
2021/05/28 02:37:13;;;;;;;1.67;1.17;;;10.20;99.90;;;;;;5026996;28;20090;-76
2021/05/28 02:39:39;;;;;;;1.73;1.48;;;10.20;99.90;;;;;;5027608;28;20070;-77
2021/05/28 02:42:05;;;;;;;1.63;1.38;;;10.10;99.90;;;;;;5036987;28;20082;-76
2021/05/28 02:44:30;;;;;;;1.25;1.15;;;10.10;99.90;;;;;;5033616;28;20089;-77
2021/05/28 02:46:56;;;;;;;1.55;1.33;;;10.10;99.90;;;;;;5041757;28;20108;-78
2021/05/28 02:49:21;;;;;;;2.45;1.38;;;10.10;99.90;;;;;;5034479;28;20483;-76
2021/05/28 02:51:47;;;;;;;2.53;1.52;;;10.10;99.90;;;;;;5018747;28;20139;-76
2021/05/28 02:54:13;;;;;;;1.73;1.60;;;10.10;99.90;;;;;;5033837;28;20081;-78
2021/05/28 02:56:38;;;;;;;1.52;1.42;;;10.00;99.90;;;;;;5034700;28;20090;-77
2021/05/28 02:59:04;;;;;;;2.08;1.55;;;10.00;99.90;;;;;;5037654;28;20072;-77
2021/05/28 03:01:29;;;;;;;1.85;1.42;;;10.10;99.90;;;;;;5033789;28;20074;-77
2021/05/28 03:03:55;;;;;;;2.55;2.00;;;10.00;99.90;;;;;;5032896;28;20074;-76
2021/05/28 03:06:20;;;;;;;2.60;1.40;;;9.90;99.90;;;;;;5045292;28;20124;-77
2021/05/28 03:08:46;;;;;;;1.85;1.30;;;9.90;99.90;;;;;;5035243;28;20136;-76
2021/05/28 03:11:12;;;;;;;2.55;1.58;;;9.80;99.90;;;;;;5042658;28;20136;-76
2021/05/28 03:13:37;;;;;;;2.03;1.75;;;9.70;99.90;;;;;;5039809;28;20082;-76
2021/05/28 03:16:03;;;;;;;3.67;1.90;;;9.70;99.90;;;;;;5036065;28;20098;-77
2021/05/28 03:18:44;;;;;;;1.60;1.33;;;9.80;99.90;;;;;;5038737;28;20084;-77
2021/05/28 03:23:54;;;;;;;4.43;1.73;;;9.80;99.90;;;;;;5040401;28;20085;-76
2021/05/28 03:26:21;;;;;;;1.48;1.25;;;9.80;99.90;;;;;;5038566;28;20101;-76
2021/05/28 03:28:47;;;;;;;3.10;1.60;;;9.80;99.90;;;;;;5038685;28;20104;-79
2021/05/28 03:31:12;;;;;;;1.75;1.50;;;9.70;99.90;;;;;;5031620;28;20077;-77
2021/05/28 03:33:38;;;;;;;3.80;1.30;;;9.70;99.90;;;;;;5032210;28;20078;-77
2021/05/28 03:36:06;;;;;;;1.98;1.48;;;9.60;99.90;;;;;;5036953;28;20104;-78
2021/05/28 03:38:31;;;;;;;2.85;1.58;;;9.60;99.90;;;;;;5038381;28;20445;-77
2021/05/28 03:40:57;;;;;;;1.42;1.10;;;9.60;99.90;;;;;;5033024;28;20544;-78
2021/05/28 03:43:22;;;;;;;3.33;1.60;;;9.40;99.90;;;;;;5033890;28;20165;-77
2021/05/28 03:45:48;;;;;;;1.35;1.25;;;9.50;99.90;;;;;;5034372;28;20507;-79
2021/05/28 03:48:14;;;;;;;1.98;1.40;;;9.60;99.90;;;;;;5032599;28;20082;-77
2021/05/28 03:50:39;;;;;;;3.40;1.38;;;9.60;99.90;;;;;;5035759;28;20141;-78
2021/05/28 03:53:05;;;;;;;1.73;1.30;;;9.40;99.90;;;;;;5034463;28;20090;-76
2021/05/28 03:55:31;;;;;;;3.28;1.30;;;9.50;99.90;;;;;;5032406;28;20224;-78
2021/05/28 03:57:56;;;;;;;1.42;1.08;;;9.40;99.90;;;;;;5033268;28;20548;-79
2021/05/28 04:00:22;;;;;;;2.55;1.35;;;9.20;99.90;;;;;;5031573;28;20066;-78
2021/05/28 04:02:48;;;;;;;6.53;1.65;;;9.20;99.90;;;;;;5024674;28;20078;-78
2021/05/28 04:05:15;;;;;;;2.83;1.50;;;9.20;99.90;;;;;;5034218;28;20076;-78
2021/05/28 04:07:41;;;;;;;2.22;1.20;;;9.00;99.90;;;;;;5020770;28;20816;-78
2021/05/28 04:10:08;;;;;;;1.63;1.52;;;9.20;99.90;;;;;;5035367;28;20085;-79
2021/05/28 04:12:34;;;;;;;1.33;1.23;;;9.20;99.90;;;;;;5035008;28;20078;-77
2021/05/28 04:14:59;;;;;;;0.90;0.80;;;9.30;99.90;;;;;;5033010;28;20074;-79
2021/05/28 04:17:25;;;;;;;2.95;1.35;;;9.30;99.90;;;;;;5032010;28;20115;-77
2021/05/28 04:19:51;;;;;;;1.40;1.08;;;9.30;99.90;;;;;;5037382;28;20107;-79
2021/05/28 04:22:16;;;;;;;1.13;0.98;;;9.30;99.90;;;;;;5042877;28;20082;-77
2021/05/28 04:24:42;;;;;;;2.45;1.50;;;9.30;99.90;;;;;;5020510;28;20070;-78
2021/05/28 04:27:08;;;;;;;3.40;1.58;;;9.40;99.90;;;;;;5015338;28;20105;-77
2021/05/28 04:29:33;;;;;;;1.88;1.75;;;9.50;99.90;;;;;;5048243;28;20065;-77
2021/05/28 04:31:59;;;;;;;1.33;1.23;;;9.50;99.90;;;;;;5043236;28;20089;-77
2021/05/28 04:34:24;;;;;;;1.92;1.42;;;9.50;99.90;;;;;;5035574;28;20085;-77
2021/05/28 04:36:50;;;;;;;2.25;1.10;;;9.50;99.90;;;;;;5048025;28;20705;-78
2021/05/28 04:39:15;;;;;;;1.52;1.42;;;9.50;99.90;;;;;;5037830;28;20455;-76
2021/05/28 04:41:41;;;;;;;1.77;1.38;;;9.50;99.90;;;;;;5049279;28;20108;-76
2021/05/28 04:44:07;;;;;;;1.33;1.23;;;9.60;99.90;;;;;;5029034;28;20132;-77
2021/05/28 04:46:33;;;;;;;1.30;1.17;;;9.70;99.90;;;;;;5030774;28;20104;-77
2021/05/28 04:48:59;;;;;;;5.28;1.83;;;9.70;99.90;;;;;;5036785;28;20078;-77
2021/05/28 04:51:24;;;;;;;3.38;1.50;;;9.70;99.90;;;;;;5030883;28;20104;-77
2021/05/28 04:53:50;;;;;;;2.00;1.58;;;9.80;99.90;;;;;;5031811;28;20132;-76
2021/05/28 04:56:17;;;;;;;3.10;1.60;;;9.80;99.90;;;;;;5029825;28;20086;-76
2021/05/28 04:58:43;;;;;;;3.50;1.25;;;9.90;99.90;;;;;;5017314;28;20181;-77
2021/05/28 05:01:08;;;;;;;1.70;1.50;;;10.00;99.90;;;;;;5042732;28;20152;-79
2021/05/28 05:03:34;;;;;;;3.90;1.23;;;10.10;99.90;;;;;;5031560;28;20070;-76
2021/05/28 05:05:59;;;;;;;2.85;1.48;;;10.10;99.90;;;;;;5046480;28;20097;-77
2021/05/28 05:08:25;;;;;;;3.95;1.52;;;10.20;99.90;;;;;;5042858;28;20069;-76
2021/05/28 05:10:51;;;;;;;2.67;1.40;;;10.20;99.90;;;;;;5031782;28;20101;-76
2021/05/28 05:13:17;;;;;;;4.85;1.90;;;10.20;99.90;;;;;;5041469;28;20132;-78
2021/05/28 05:15:42;;;;;;;2.33;1.92;;;10.30;99.90;;;;;;5024606;28;20136;-79
2021/05/28 05:18:08;;;;;;;4.25;2.17;;;10.30;99.90;;;;;;5033538;28;20070;-78
2021/05/28 05:20:35;;;;;;;4.35;2.03;;;10.30;99.90;;;;;;5036749;28;20066;-79
2021/05/28 05:23:02;;;;;;;2.03;1.65;;;10.40;99.90;;;;;;5028872;28;20165;-77
2021/05/28 05:25:28;;;;;;;4.32;1.80;;;10.40;99.90;;;;;;5031758;28;20873;-77
2021/05/28 05:27:53;;;;;;;3.08;2.78;;;10.50;99.90;;;;;;5038118;28;20087;-77
2021/05/28 05:30:20;;;;;;;2.58;2.28;;;10.50;99.90;;;;;;5036818;28;20078;-78
2021/05/28 05:32:46;;;;;;;2.67;1.50;;;10.60;99.90;;;;;;5013614;28;20132;-76
2021/05/28 05:35:12;;;;;;;2.05;1.75;;;10.60;99.90;;;;;;5028540;28;20074;-77
2021/05/28 05:37:37;;;;;;;2.53;2.10;;;10.60;99.90;;;;;;5033486;28;20072;-77
2021/05/28 05:40:08;;;;;;;2.33;2.13;;;10.60;99.90;;;;;;5040588;28;20487;-76
2021/05/28 05:42:36;;;;;;;3.42;1.88;;;10.70;99.90;;;;;;5042846;28;20073;-77
2021/05/28 05:45:03;;;;;;;3.33;2.03;;;10.70;99.90;;;;;;5046147;28;20168;-78
2021/05/28 05:47:28;;;;;;;3.45;2.40;;;10.80;99.90;;;;;;5029829;28;20106;-79
2021/05/28 05:49:54;;;;;;;3.67;2.38;;;10.90;99.90;;;;;;5032059;28;20085;-78
2021/05/28 05:52:20;;;;;;;2.58;2.38;;;10.90;99.90;;;;;;5025443;28;20086;-78
2021/05/28 05:54:46;;;;;;;3.10;2.47;;;10.90;99.90;;;;;;5044197;28;20074;-77
2021/05/28 05:57:12;;;;;;;4.35;2.80;;;10.90;99.90;;;;;;5033162;28;20081;-77
2021/05/28 05:59:38;;;;;;;2.47;2.25;;;11.00;99.90;;;;;;5038946;28;20761;-77
2021/05/28 06:02:03;;;;;;;2.78;2.35;;;11.00;99.90;;;;;;5033540;28;20086;-77
2021/05/28 06:04:29;;;;;;;3.03;2.40;;;11.00;99.90;;;;;;5025311;28;20070;-76
2021/05/28 06:06:54;;;;;;;3.08;1.95;;;11.10;99.90;;;;;;5030541;28;20123;-79
2021/05/28 06:09:20;;;;;;;2.95;2.20;;;11.10;99.90;;;;;;5034524;28;20078;-78
2021/05/28 06:11:45;;;;;;;3.72;2.28;;;11.10;99.90;;;;;;5031623;28;20097;-76
2021/05/28 06:14:11;;;;;;;3.88;3.03;;;11.20;99.90;;;;;;5026908;28;20674;-76
2021/05/28 06:16:37;;;;;;;3.25;2.78;;;11.20;99.90;;;;;;5036207;28;20575;-76
2021/05/28 06:19:02;;;;;;;2.60;1.90;;;11.20;99.90;;;;;;5034810;28;20088;-76
2021/05/28 06:21:30;;;;;;;3.85;2.85;;;11.30;99.90;;;;;;5012202;28;20501;-76
2021/05/28 06:23:56;;;;;;;3.05;2.72;;;11.30;99.90;;;;;;5028293;28;20542;-76
2021/05/28 06:26:21;;;;;;;2.80;2.28;;;11.40;99.90;;;;;;5035995;28;20109;-76
2021/05/28 06:28:47;;;;;;;2.65;2.45;;;11.40;99.90;;;;;;5030895;28;20172;-77
2021/05/28 06:31:13;;;;;;;4.18;2.30;;;11.50;99.90;;;;;;5014861;28;20082;-76
2021/05/28 06:33:38;;;;;;;4.20;2.10;;;11.60;99.90;;;;;;5045472;28;20078;-76
2021/05/28 06:36:04;;;;;;;3.70;2.38;;;11.60;99.90;;;;;;5039896;28;20477;-76
2021/05/28 06:38:32;;;;;;;4.85;2.53;;;11.60;99.90;;;;;;5033065;28;20185;-76
2021/05/28 06:40:57;;;;;;;5.32;2.45;;;11.70;99.90;;;;;;5032786;28;20519;-78
2021/05/28 06:43:23;;;;;;;4.00;2.55;;;11.80;99.90;;;;;;5036904;28;20082;-76
2021/05/28 06:45:48;;;;;;;4.43;3.20;;;11.80;99.90;;;;;;5033691;28;20093;-77
2021/05/28 06:48:14;;;;;;;4.55;2.80;;;11.90;99.90;;;;;;5045793;28;20180;-78
2021/05/28 06:50:41;;;;;;;2.88;2.40;;;12.00;99.90;;;;;;5050887;28;20135;-78
2021/05/28 06:53:08;;;;;;;3.10;2.80;;;12.00;99.90;;;;;;5051162;28;20101;-76
2021/05/28 06:55:34;;;;;;;3.08;2.58;;;12.00;99.90;;;;;;5044036;28;20094;-77
2021/05/28 06:57:59;;;;;;;2.67;2.30;;;12.10;99.90;;;;;;5034031;28;20128;-78
2021/05/28 07:00:25;;;;;;;3.95;2.78;;;12.10;99.90;;;;;;5039692;28;20066;-75
2021/05/28 07:02:55;;;;;;;3.35;2.50;;;12.10;99.90;;;;;;5035919;28;20074;-78
2021/05/28 07:05:24;;;;;;;4.03;2.50;;;12.10;99.90;;;;;;5032639;28;20078;-78
2021/05/28 07:07:53;;;;;;;3.05;2.63;;;12.20;99.90;;;;;;5047287;28;20084;-78
2021/05/28 07:10:18;;;;;;;4.78;2.40;;;12.20;99.90;;;;;;5037978;28;20113;-78
2021/05/28 07:12:44;;;;;;;4.60;2.75;;;12.30;99.90;;;;;;5028741;28;20094;-76
2021/05/28 07:15:11;;;;;;;4.47;3.00;;;12.30;99.90;;;;;;5034173;28;20070;-77
2021/05/28 07:17:36;;;;;;;2.45;2.20;;;12.30;99.90;;;;;;5029172;28;20212;-78
2021/05/28 07:20:03;;;;;;;4.07;2.45;;;12.30;99.90;;;;;;5034834;28;20165;-76
2021/05/28 07:22:29;;;;;;;6.63;3.10;;;12.30;99.90;;;;;;5033338;28;20549;-77
2021/05/28 07:24:55;;;;;;;3.50;1.92;;;12.40;99.90;;;;;;5043284;28;20081;-77
2021/05/28 07:27:20;;;;;;;6.90;3.13;;;12.40;99.90;;;;;;5041397;28;20121;-76
2021/05/28 07:29:46;;;;;;;1.92;1.70;;;12.40;99.90;;;;;;5044501;28;20085;-76
2021/05/28 07:32:11;;;;;;;4.55;2.08;;;12.40;99.90;;;;;;5032452;28;20109;-76
2021/05/28 07:34:38;;;;;;;3.65;2.83;;;12.40;99.90;;;;;;5042948;28;20161;-77
2021/05/28 07:37:04;;;;;;;3.25;2.33;;;12.50;99.90;;;;;;5037886;28;20089;-76
2021/05/28 07:39:30;;;;;;;3.03;2.33;;;12.50;99.90;;;;;;5036364;28;20773;-77
2021/05/28 07:41:55;;;;;;;5.30;2.97;;;12.60;99.90;;;;;;5030121;28;20078;-77
2021/05/28 07:44:21;;;;;;;3.75;2.67;;;12.60;99.90;;;;;;5032252;28;20089;-77
2021/05/28 07:46:47;;;;;;;3.70;3.00;;;12.60;99.90;;;;;;5034831;28;20102;-77
2021/05/28 07:49:14;;;;;;;3.25;2.95;;;12.50;99.90;;;;;;5030279;28;20081;-77
2021/05/28 07:51:40;;;;;;;3.67;3.20;;;12.40;99.90;;;;;;5037734;28;20632;-77
2021/05/28 07:54:07;;;;;;;5.43;3.10;;;12.50;99.90;;;;;;5019982;28;20109;-78
2021/05/28 07:56:34;;;;;;;4.38;2.65;;;12.50;99.90;;;;;;5025421;28;20434;-77
2021/05/28 07:59:00;;;;;;;4.00;2.72;;;12.60;99.90;;;;;;5040257;28;20160;-78
2021/05/28 08:01:27;;;;;;;5.30;3.20;;;12.60;99.90;;;;;;5016485;28;20077;-79
2021/05/28 08:03:53;;;;;;;5.35;3.42;;;12.60;99.90;;;;;;5028932;28;20086;-78
2021/05/28 08:06:18;;;;;;;4.57;3.30;;;12.50;99.90;;;;;;5026307;28;20105;-77
2021/05/28 08:08:44;;;;;;;4.18;3.10;;;12.50;99.90;;;;;;5029495;28;20078;-76
2021/05/28 08:11:10;;;;;;;4.38;3.15;;;12.50;99.90;;;;;;5027732;28;20105;-76
2021/05/28 08:13:36;;;;;;;6.03;3.35;;;12.50;99.90;;;;;;5047697;28;20522;-76
2021/05/28 08:16:02;;;;;;;3.30;3.00;;;12.50;99.90;;;;;;5026239;28;20144;-77
2021/05/28 08:18:29;;;;;;;5.05;3.00;;;12.60;99.90;;;;;;5049478;28;20585;-77
2021/05/28 08:20:55;;;;;;;6.60;4.00;;;12.80;99.90;;;;;;5036190;28;20157;-75
2021/05/28 08:23:21;;;;;;;7.40;4.05;;;12.80;99.90;;;;;;5042513;28;20136;-75
2021/05/28 08:25:49;;;;;;;4.93;4.28;;;13.00;99.90;;;;;;5036197;28;20180;-76
2021/05/28 08:28:17;;;;;;;4.60;3.72;;;13.00;99.90;;;;;;5043753;28;20077;-77
2021/05/28 08:30:44;;;;;;;5.70;3.60;;;13.10;99.90;;;;;;5019821;28;20109;-77
2021/05/28 08:33:12;;;;;;;4.85;3.40;;;13.30;99.90;;;;;;5030040;28;20097;-77
2021/05/28 08:35:42;;;;;;;3.22;2.92;;;13.30;99.90;;;;;;5031617;28;20082;-77
2021/05/28 08:38:08;;;;;;;4.45;3.08;;;13.40;99.90;;;;;;5037350;28;20070;-77
2021/05/28 08:40:34;;;;;;;4.47;3.90;;;13.70;99.90;;;;;;5021047;28;20123;-76
2021/05/28 08:43:01;;;;;;;5.07;4.00;;;13.70;99.90;;;;;;5023098;28;20092;-78
2021/05/28 08:45:37;;;;;;;4.82;4.28;;;13.50;99.90;;;;;;5032287;28;20078;-75
2021/05/28 08:48:07;;;;;;;5.85;3.15;;;13.30;99.90;;;;;;5015817;28;20077;-75
2021/05/28 08:50:33;;;;;;;4.90;3.83;;;13.20;99.90;;;;;;5044505;28;20074;-75
2021/05/28 08:53:07;;;;;;;5.68;4.00;;;13.30;99.90;;;;;;5020060;28;20144;-76
2021/05/28 08:55:34;;;;;;;7.25;4.32;;;13.20;99.90;;;;;;5013416;28;20085;-77
2021/05/28 08:58:05;;;;;;;4.90;4.40;;;13.20;99.90;;;;;;5022384;28;20160;-77
2021/05/28 09:00:30;;;;;;;5.93;4.03;;;13.20;99.90;;;;;;5032896;28;20495;-78
2021/05/28 09:02:56;;;;;;;4.82;3.22;;;13.20;99.90;;;;;;5020122;28;20078;-79
2021/05/28 09:05:24;;;;;;;7.28;4.35;;;13.30;99.90;;;;;;5030905;28;20070;-78
2021/05/28 09:07:58;;;;;;;4.13;3.65;;;13.30;99.90;;;;;;5025048;28;20085;-78
2021/05/28 09:10:34;;;;;;;7.28;5.07;;;13.30;99.90;;;;;;5042391;28;20160;-78
2021/05/28 09:13:10;;;;;;;5.05;4.07;;;13.30;99.90;;;;;;5042686;28;20134;-78
2021/05/28 09:15:36;;;;;;;7.18;4.88;;;13.30;99.90;;;;;;5024390;28;20080;-77
2021/05/28 09:18:05;;;;;;;5.70;4.40;;;13.20;99.90;;;;;;5040859;28;20077;-77
2021/05/28 09:20:31;;;;;;;5.55;4.40;;;13.20;99.90;;;;;;5030751;28;20062;-77
2021/05/28 09:23:12;;;;;;;5.78;4.22;;;13.20;99.90;;;;;;5038113;28;20577;-78
2021/05/28 09:26:05;;;;;;;5.65;4.93;;;13.20;99.90;;;;;;5046278;28;20802;-77
2021/05/28 09:28:42;;;;;;;7.70;4.53;;;13.20;99.90;;;;;;5043322;28;20604;-78
2021/05/28 09:31:11;;;;;;;6.60;4.70;;;13.20;99.90;;;;;;5031477;28;20081;-79
2021/05/28 09:33:43;;;;;;;5.97;4.47;;;13.30;99.90;;;;;;5029738;28;20078;-78
2021/05/28 09:36:15;;;;;;;4.68;4.20;;;13.20;99.90;;;;;;5031357;28;20090;-78
2021/05/28 09:38:53;;;;;;;5.78;4.63;;;13.20;99.90;;;;;;5030917;28;20078;-77
2021/05/28 09:41:40;;;;;;;6.82;4.35;;;13.20;99.90;;;;;;5042334;28;20123;-78
2021/05/28 09:44:10;;;;;;;7.97;4.18;;;13.20;99.90;;;;;;5047875;28;20458;-78
2021/05/28 09:46:36;;;;;;;4.65;4.07;;;13.30;99.90;;;;;;5043029;28;20458;-77
2021/05/28 09:49:10;;;;;;;5.50;4.13;;;13.30;99.90;;;;;;5049727;28;20069;-78
2021/05/28 09:51:36;;;;;;;;;;;13.40;99.90;;;;;;5032183;28;20147;-77
2021/05/28 09:54:13;;;;;;;5.88;3.97;;;13.40;99.90;;;;;;5030097;28;19965;-78
2021/05/28 09:56:39;;;;;;;5.53;3.70;;;13.40;99.90;;;;;;5036713;28;20092;-76
2021/05/28 09:59:07;;;;;;;8.02;4.55;;;13.40;99.90;;;;;;5034321;28;20077;-77
2021/05/28 10:01:35;;;;;;;3.72;3.40;;;13.50;99.90;;;;;;5039106;28;20113;-77
2021/05/28 10:04:06;;;;;;;6.75;5.05;;;13.60;99.90;;;;;;5044326;28;20073;-77
2021/05/28 10:06:42;;;;;;;6.85;4.40;;;13.60;99.90;;;;;;5054197;28;20139;-79
2021/05/28 10:09:09;;;;;;;6.65;4.88;;;13.60;99.90;;;;;;5045706;28;20107;-83
2021/05/28 10:11:37;;;;;;;5.55;4.32;;;13.50;99.90;;;;;;5025489;28;20089;-77
2021/05/28 10:14:03;;;;;;;6.18;5.40;;;13.50;99.90;;;;;;5046353;28;20126;-79
2021/05/28 10:16:29;;;;;;;7.32;5.22;;;13.40;99.90;;;;;;5033946;28;20581;-76
2021/05/28 10:18:56;;;;;;;6.88;4.20;;;13.40;99.90;;;;;;5041615;28;20077;-79
2021/05/28 10:21:23;;;;;;;5.20;4.70;;;13.40;99.90;;;;;;5052994;28;20077;-79
2021/05/28 10:23:49;;;;;;;6.60;4.43;;;13.40;99.90;;;;;;5043250;28;20077;-79
2021/05/28 10:26:23;;;;;;;5.65;4.72;;;13.30;99.90;;;;;;5036345;28;20578;-79
2021/05/28 10:28:48;;;;;;;9.30;5.05;;;13.20;99.90;;;;;;5026572;28;20528;-82
2021/05/28 10:31:14;;;;;;;7.18;4.60;;;13.30;99.90;;;;;;5044597;28;20139;-80
2021/05/28 10:33:52;;;;;;;5.07;4.45;;;13.30;99.90;;;;;;5042583;28;20065;-81
2021/05/28 10:36:41;;;;;;;5.70;4.10;;;13.30;99.90;;;;;;5033128;28;20180;-82
2021/05/28 10:39:11;;;;;;;5.25;4.65;;;13.30;99.90;;;;;;5040098;28;20642;-83
2021/05/28 10:41:39;;;;;;;5.13;4.63;;;13.40;99.90;;;;;;5022333;28;20174;-79
2021/05/28 10:44:13;;;;;;;5.70;4.00;;;13.50;99.90;;;;;;5050058;28;20077;-77
2021/05/28 10:46:54;;;;;;;5.50;3.90;;;13.50;99.90;;;;;;5039307;28;20595;-80
2021/05/28 10:49:36;;;;;;;4.60;3.78;;;13.60;99.90;;;;;;5046382;28;20533;-78
2021/05/28 10:52:05;;;;;;;4.88;4.20;;;13.40;99.90;;;;;;5040206;28;20546;-80
2021/05/28 10:54:32;;;;;;;7.65;4.68;;;13.50;99.90;;;;;;5026969;28;20097;-76
2021/05/28 10:57:18;;;;;;;5.65;4.70;;;13.50;99.90;;;;;;5049029;28;20169;-76
2021/05/28 10:59:48;;;;;;;6.30;5.00;;;13.50;99.90;;;;;;5046571;28;20836;-76
2021/05/28 11:02:16;;;;;;;5.18;4.47;;;13.50;99.90;;;;;;5038195;28;20082;-75
2021/05/28 11:04:42;;;;;;;6.47;4.45;;;13.50;99.90;;;;;;5037854;28;20461;-76
2021/05/28 11:07:10;;;;;;;7.63;5.38;;;13.50;99.90;;;;;;5044367;28;20103;-76
2021/05/28 11:09:51;;;;;;;5.38;4.57;;;13.60;99.90;;;;;;5052948;28;20129;-75
2021/05/28 11:12:37;;;;;;;6.15;4.90;;;13.50;99.90;;;;;;5020670;28;20184;-75
2021/05/28 11:15:10;;;;;;;7.13;5.22;;;13.50;99.90;;;;;;5029325;28;20546;-75
2021/05/28 11:17:55;;;;;;;6.47;5.60;;;13.40;99.90;;;;;;5031562;28;20636;-75
2021/05/28 11:20:28;;;;;;;7.15;5.05;;;13.50;99.90;;;;;;5040994;28;20102;-75
2021/05/28 11:22:54;;;;;;;7.53;4.78;;;13.50;99.90;;;;;;5043540;28;20583;-75
2021/05/28 11:25:22;;;;;;;4.85;4.32;;;13.50;99.90;;;;;;5037569;28;20073;-75
2021/05/28 11:27:58;;;;;;;4.03;3.65;;;13.60;99.90;;;;;;5046679;28;20078;-75
2021/05/28 11:30:41;;;;;;;5.20;3.67;;;13.50;99.90;;;;;;5030456;28;20073;-75
2021/05/28 11:33:07;;;;;;;4.13;3.35;;;13.60;99.90;;;;;;5049246;28;20090;-75
2021/05/28 11:35:42;;;;;;;3.80;3.38;;;13.70;99.90;;;;;;5032735;28;20456;-77
2021/05/28 11:38:11;;;;;;;4.50;3.60;;;13.70;99.90;;;;;;5051722;28;20061;-76
2021/05/28 11:40:43;;;;;;;4.22;3.22;;;13.70;99.90;;;;;;5041418;28;20073;-75
2021/05/28 11:43:14;;;;;;;3.50;3.20;;;13.90;99.90;;;;;;5031076;28;20492;-76
2021/05/28 11:45:58;;;;;;;4.05;3.65;;;14.00;99.90;;;;;;5029328;28;20566;-76
2021/05/28 11:48:25;;;;;;;7.20;4.47;;;14.00;99.90;;;;;;5048918;28;20085;-76
2021/05/28 11:51:02;;;;;;;4.80;4.00;;;14.10;99.90;;;;;;5044241;28;20078;-77
2021/05/28 11:53:40;;;;;;;4.65;4.03;;;14.30;99.90;;;;;;5034342;28;20097;-75
2021/05/28 11:56:06;;;;;;;11.48;4.95;;;14.20;99.90;;;;;;5030015;28;20120;-75
2021/05/28 11:58:34;;;;;;;5.97;4.35;;;14.20;99.90;;;;;;5013255;28;20086;-76
2021/05/28 12:01:03;;;;;;;4.60;4.05;;;14.20;99.90;;;;;;5032504;28;20600;-75
2021/05/28 12:03:28;;;;;;;5.10;4.07;;;14.30;99.90;;;;;;5032877;28;20090;-76
2021/05/28 12:05:54;;;;;;;5.10;3.72;;;14.40;99.90;;;;;;5038810;28;20123;-75
2021/05/28 12:08:26;;;;;;;5.18;3.92;;;14.50;99.90;;;;;;5032251;28;20081;-76
2021/05/28 12:10:54;;;;;;;6.32;3.97;;;14.40;99.90;;;;;;5024053;28;20078;-76
2021/05/28 12:13:33;;;;;;;4.90;3.65;;;14.50;99.90;;;;;;5032534;28;20097;-75
2021/05/28 12:16:01;;;;;;;4.70;3.85;;;14.50;99.90;;;;;;5028664;28;20796;-75
2021/05/28 12:18:43;;;;;;;4.20;3.80;;;14.40;99.90;;;;;;5033361;28;20104;-75
2021/05/28 12:21:12;;;;;;;5.35;3.28;;;14.50;99.90;;;;;;5031069;28;20093;-75
2021/05/28 12:23:40;;;;;;;4.13;3.53;;;14.50;99.90;;;;;;5045358;28;20610;-75
2021/05/28 12:26:07;;;;;;;4.38;3.97;;;14.70;99.90;;;;;;5042308;28;20848;-75
2021/05/28 12:28:34;;;;;;;6.75;3.65;;;15.00;99.90;;;;;;5040571;28;20097;-76
2021/05/28 12:31:11;;;;;;;4.20;3.72;;;14.80;99.90;;;;;;5042920;28;20142;-76
2021/05/28 12:33:40;;;;;;;5.25;4.63;;;14.80;99.90;;;;;;5047481;28;20108;-75
2021/05/28 12:36:15;;;;;;;5.65;4.60;;;14.80;99.90;;;;;;5041792;28;20081;-76
2021/05/28 12:38:49;;;;;;;4.20;3.80;;;14.70;99.90;;;;;;5045384;28;20095;-76
2021/05/28 12:41:20;;;;;;;4.43;3.78;;;14.70;99.90;;;;;;5038808;28;20070;-75
2021/05/28 12:43:47;;;;;;;5.30;3.88;;;14.80;99.90;;;;;;5034571;28;20542;-76
2021/05/28 12:46:23;;;;;;;5.55;4.13;;;14.70;99.90;;;;;;5032507;28;20562;-75
2021/05/28 12:48:52;;;;;;;4.82;3.75;;;14.80;99.90;;;;;;5036399;28;20101;-74
2021/05/28 12:51:20;;;;;;;4.47;3.42;;;14.80;99.90;;;;;;5044996;28;20171;-79
2021/05/28 12:53:46;;;;;;;5.95;3.95;;;14.90;99.90;;;;;;5017181;28;20098;-75